This is the latest recevied weather packets stored in our database for station/object YC0TBU-4. If no packets are shown the sender has not sent any weather packets the latest 10 day(s).
| Time | Temp. | Humidity | Pressure | Rain* | Wind** | Luminosity | Snow |
|---|---|---|---|---|---|---|---|
| 1777538603 | 33.33° C | 38% | 1007.7 hPa | - | - | - | - |
| 1777537652 | 32.22° C | 42% | 1008 hPa | - | - | - | - |
| 1777536717 | 32.22° C | 38% | 1007.8 hPa | - | - | - | - |
| 1777535782 | 32.22° C | 38% | 1007.3 hPa | - | - | - | - |
| 1777534847 | 31.67° C | 37% | 1007.1 hPa | - | - | - | - |
| 1777533912 | 32.78° C | 35% | 1007.6 hPa | - | - | - | - |
| 1777532976 | 32.78° C | 35% | 1008.1 hPa | - | - | - | - |
| 1777532041 | 33.33° C | 34% | 1010.1 hPa | - | - | - | - |
| 1777531106 | 33.33° C | 33% | 1010.3 hPa | - | - | - | - |
| 1777530171 | 35° C | 30% | 1009.5 hPa | - | - | - | - |
| 1777529236 | 35° C | 30% | 1009.1 hPa | - | - | - | - |
| 1777528301 | 34.44° C | 30% | 1009.1 hPa | - | - | - | - |
| 1777527366 | 33.89° C | 31% | 1009.2 hPa | - | - | - | - |
| 1777526433 | 33.33° C | 32% | 1009.7 hPa | - | - | - | - |
| 1777525496 | 33.89° C | 32% | 1009.4 hPa | - | - | - | - |
| 1777524545 | 34.44° C | 31% | 1010.8 hPa | - | - | - | - |
| 1777523610 | 33.89° C | 32% | 1010.9 hPa | - | - | - | - |
| 1777522675 | 33.89° C | 33% | 1011.2 hPa | - | - | - | - |
| 1777521740 | 33.89° C | 33% | 1011.3 hPa | - | - | - | - |
| 1777520805 | 33.33° C | 34% | 1011.4 hPa | - | - | - | - |
| 1777519870 | 33.33° C | 35% | 1011.6 hPa | - | - | - | - |
| 1777518935 | 33.33° C | 34% | 1011.6 hPa | - | - | - | - |
| 1777518000 | 33.33° C | 35% | 1012.3 hPa | - | - | - | - |
| 1777517065 | 33.33° C | 35% | 1012.1 hPa | - | - | - | - |
| 1777516130 | 33.33° C | 36% | 1011.9 hPa | - | - | - | - |
* Rain since midnight (hover to see other rain measurements)
** Current wind speed in m/s (hover to see current wind gust speed)